Time;durP1;ratioP1;P1;durP2;ratioP2;P2;SDS_P1;SDS_P2;PMS_P1;PMS_P2;Temp;Humidity;BMP_temperature;BMP_pressure;BME280_temperature;BME280_humidity;BME280_pressure;Samples;Min_cycle;Max_cycle;Signal;HPM_P1;HPM_P2
2023/07/02 00:02:19;;;;;;;11.63;7.30;;;;;;;25.86;52.32;98021.25;4935220;29;20035;-80
2023/07/02 00:04:44;;;;;;;7.30;6.03;;;;;;;25.81;52.84;98007.78;4934049;29;20509;-79
2023/07/02 00:07:10;;;;;;;8.05;6.25;;;;;;;25.79;52.77;98013.38;4933740;29;20031;-79
2023/07/02 00:09:36;;;;;;;9.65;6.15;;;;;;;25.70;52.80;98004.06;4933585;29;20043;-80
2023/07/02 00:12:01;;;;;;;6.35;5.30;;;;;;;25.70;52.90;98000.59;4933588;29;20027;-79
2023/07/02 00:14:27;;;;;;;7.03;5.60;;;;;;;25.70;52.66;97996.06;4933534;29;20061;-80
2023/07/02 00:16:52;;;;;;;6.85;5.03;;;;;;;25.66;52.55;97992.22;4933290;29;20051;-79
2023/07/02 00:19:18;;;;;;;5.80;4.50;;;;;;;25.64;52.51;97987.09;4949847;29;20098;-79
2023/07/02 00:21:43;;;;;;;5.22;4.63;;;;;;;25.64;52.74;97975.59;4933205;29;20501;-72
2023/07/02 00:24:11;;;;;;;5.85;4.70;;;;;;;25.59;52.79;97983.50;4934805;29;20039;-72
2023/07/02 00:26:37;;;;;;;6.90;4.47;;;;;;;25.54;52.60;97986.88;4933698;29;20494;-73
2023/07/02 00:29:05;;;;;;;7.50;4.70;;;;;;;25.51;52.52;97987.34;4933726;29;20067;-73
2023/07/02 00:31:31;;;;;;;4.85;4.35;;;;;;;25.48;52.64;97989.66;4933498;29;20031;-72
2023/07/02 00:33:56;;;;;;;8.32;4.30;;;;;;;25.46;52.48;97985.34;4933935;29;20097;-73
2023/07/02 00:36:22;;;;;;;4.80;3.95;;;;;;;25.45;52.21;98002.41;4933262;29;20130;-73
2023/07/02 00:38:48;;;;;;;5.07;4.40;;;;;;;25.39;52.43;97998.00;4933411;29;20028;-73
2023/07/02 00:41:14;;;;;;;5.70;4.13;;;;;;;25.38;52.11;97999.06;4933334;29;20040;-73
2023/07/02 00:43:43;;;;;;;5.38;4.28;;;;;;;25.33;52.29;97998.91;4933486;29;20099;-73
2023/07/02 00:46:13;;;;;;;8.02;4.25;;;;;;;25.31;52.41;98003.69;4933876;29;20028;-73
2023/07/02 00:48:39;;;;;;;4.82;4.05;;;;;;;25.32;52.17;97991.13;4933974;29;20039;-73
2023/07/02 00:51:05;;;;;;;8.43;4.47;;;;;;;25.30;52.39;97990.56;4934689;29;20091;-73
2023/07/02 00:53:32;;;;;;;5.65;4.30;;;;;;;25.26;52.27;97992.84;4952903;29;20032;-73
2023/07/02 00:55:57;;;;;;;4.78;4.28;;;;;;;25.22;52.44;97987.19;4936902;29;20092;-73
2023/07/02 00:58:23;;;;;;;4.72;4.22;;;;;;;25.16;52.52;97989.94;4952515;29;20063;-73
2023/07/02 01:00:48;;;;;;;6.28;4.20;;;;;;;25.16;52.46;97995.25;4936747;29;20391;-73
2023/07/02 01:03:14;;;;;;;4.80;3.90;;;;;;;25.17;52.60;97994.22;4936592;29;20043;-73
2023/07/02 01:05:41;;;;;;;4.90;4.20;;;;;;;25.13;52.44;97998.41;4952939;29;20024;-73
2023/07/02 01:08:07;;;;;;;4.95;3.80;;;;;;;25.15;52.15;98007.00;4937023;29;20032;-73
2023/07/02 01:10:35;;;;;;;4.95;4.13;;;;;;;25.13;52.33;98012.59;4936478;29;20566;-73
2023/07/02 01:13:01;;;;;;;6.20;4.20;;;;;;;25.11;52.11;97993.28;4936701;29;20032;-73
2023/07/02 01:15:27;;;;;;;4.80;4.10;;;;;;;25.13;51.86;97988.53;4936973;29;20467;-73
2023/07/02 01:17:52;;;;;;;5.45;4.13;;;;;;;25.14;51.68;97986.69;4936575;29;20028;-73
2023/07/02 01:20:19;;;;;;;5.15;3.83;;;;;;;25.17;51.77;97988.88;4936755;29;20087;-73
2023/07/02 01:22:45;;;;;;;5.72;4.18;;;;;;;25.15;51.81;97991.00;4936417;29;20044;-73
2023/07/02 01:25:11;;;;;;;4.85;3.60;;;;;;;25.13;51.55;97996.56;4936765;29;20538;-73
2023/07/02 01:27:36;;;;;;;6.10;4.30;;;;;;;25.07;51.56;97995.59;4936013;29;20039;-73
2023/07/02 01:30:02;;;;;;;6.97;4.90;;;;;;;25.07;51.72;97994.81;4936999;29;20052;-73
2023/07/02 01:32:28;;;;;;;9.02;7.63;;;;;;;25.07;51.54;98006.28;4952234;29;20035;-72
2023/07/02 01:34:53;;;;;;;13.07;10.13;;;;;;;25.05;51.65;98002.22;4935901;29;20040;-72
2023/07/02 01:37:19;;;;;;;15.63;11.52;;;;;;;25.00;51.84;98002.91;4936209;29;20091;-73
2023/07/02 01:39:44;;;;;;;13.85;10.85;;;;;;;24.99;51.63;98001.28;4936200;29;20039;-73
2023/07/02 01:42:15;;;;;;;12.70;10.85;;;;;;;24.99;51.41;98005.81;4935813;29;20055;-73
2023/07/02 01:44:41;;;;;;;11.88;9.70;;;;;;;24.93;51.70;97996.84;4952493;29;20470;-73
2023/07/02 01:47:06;;;;;;;10.40;8.45;;;;;;;24.91;51.61;97997.06;4936138;29;20095;-73
2023/07/02 01:49:32;;;;;;;12.07;9.02;;;;;;;24.91;51.78;97994.41;4936373;29;20031;-73
2023/07/02 01:51:58;;;;;;;10.80;7.68;;;;;;;24.89;51.62;97985.00;4937389;29;20035;-73
2023/07/02 01:54:26;;;;;;;13.57;7.15;;;;;;;24.90;51.47;97986.63;4936070;29;20078;-73
2023/07/02 01:56:52;;;;;;;8.05;6.90;;;;;;;24.87;51.61;97985.22;4951638;29;20035;-73
2023/07/02 01:59:18;;;;;;;9.38;6.18;;;;;;;24.87;51.45;97987.88;4951621;29;20086;-73
2023/07/02 02:01:43;;;;;;;6.80;5.50;;;;;;;24.84;51.72;97983.03;4951350;29;20044;-73
2023/07/02 02:04:09;;;;;;;9.85;5.85;;;;;;;24.80;51.80;97989.06;4951064;28;20443;-73
2023/07/02 02:06:35;;;;;;;6.57;5.57;;;;;;;24.80;51.65;97989.84;4936073;29;20114;-73
2023/07/02 02:09:00;;;;;;;8.85;6.80;;;;;;;24.80;51.42;97989.84;4935756;29;20031;-73
2023/07/02 02:11:26;;;;;;;10.00;8.25;;;;;;;24.79;51.54;97982.88;4935834;29;20048;-73
2023/07/02 02:13:51;;;;;;;15.63;11.35;;;;;;;24.76;51.49;97988.66;4935190;29;20102;-73
2023/07/02 02:16:17;;;;;;;19.60;14.10;;;;;;;24.73;51.60;97981.94;4935872;29;20058;-72
2023/07/02 02:18:43;;;;;;;17.13;13.98;;;;;;;24.73;51.51;97981.94;4935634;29;20031;-72
2023/07/02 02:21:08;;;;;;;15.80;11.88;;;;;;;24.71;51.76;97977.88;4935491;29;20044;-72
2023/07/02 02:23:34;;;;;;;16.90;11.02;;;;;;;24.68;51.69;97980.97;4936603;29;20028;-72
2023/07/02 02:25:59;;;;;;;12.70;10.57;;;;;;;24.64;51.88;97977.97;4936504;29;20036;-72
2023/07/02 02:28:25;;;;;;;11.63;8.98;;;;;;;24.63;51.54;97981.66;4935840;29;20369;-72
2023/07/02 02:30:50;;;;;;;10.93;7.40;;;;;;;24.62;51.46;97977.38;4951288;29;20067;-72
2023/07/02 02:33:15;;;;;;;9.68;6.85;;;;;;;24.62;51.41;97987.22;4935314;29;20054;-72
2023/07/02 02:35:41;;;;;;;8.13;5.82;;;;;;;24.60;51.32;97975.97;4951226;29;20053;-72
2023/07/02 02:38:06;;;;;;;6.93;5.78;;;;;;;24.56;51.16;97973.75;4936259;29;20027;-72
2023/07/02 02:40:32;;;;;;;6.90;5.18;;;;;;;24.56;51.31;97978.25;4950518;29;20051;-72
2023/07/02 02:42:57;;;;;;;7.05;4.82;;;;;;;24.56;51.42;97986.25;4934869;29;20066;-72
2023/07/02 02:45:23;;;;;;;6.13;4.63;;;;;;;24.53;51.46;97981.38;4934612;29;20395;-72
2023/07/02 02:47:48;;;;;;;5.63;4.40;;;;;;;24.53;51.50;97978.72;4936379;29;20052;-72
2023/07/02 02:50:14;;;;;;;8.63;4.32;;;;;;;24.56;51.34;97991.59;4935086;29;20542;-72
2023/07/02 02:52:39;;;;;;;4.70;4.00;;;;;;;24.52;51.56;97988.53;4950867;29;20459;-72
2023/07/02 02:55:06;;;;;;;5.82;3.95;;;;;;;24.54;51.30;97977.66;4934802;29;20031;-72
2023/07/02 02:57:32;;;;;;;8.05;3.83;;;;;;;24.59;51.20;97983.19;4935043;29;20027;-72
2023/07/02 02:59:57;;;;;;;3.72;3.33;;;;;;;24.61;51.24;97983.75;4934605;29;20483;-72
2023/07/02 03:02:23;;;;;;;5.60;3.58;;;;;;;24.56;51.36;97983.59;4934687;29;20094;-72
2023/07/02 03:04:49;;;;;;;4.13;3.20;;;;;;;24.58;51.35;97989.53;4934807;29;20100;-72
2023/07/02 03:07:15;;;;;;;4.75;3.40;;;;;;;24.61;51.18;97990.94;4934388;29;20126;-72
2023/07/02 03:09:40;;;;;;;4.43;3.00;;;;;;;24.64;51.08;97996.66;4934575;29;20039;-72
2023/07/02 03:12:06;;;;;;;4.45;3.00;;;;;;;24.71;50.96;97994.69;4934486;29;20035;-72
2023/07/02 03:14:32;;;;;;;5.20;3.10;;;;;;;24.81;50.70;97998.66;4935006;29;20032;-72
2023/07/02 03:16:58;;;;;;;3.75;3.28;;;;;;;24.91;50.25;98007.75;4934483;29;20031;-72
2023/07/02 03:19:24;;;;;;;6.10;2.80;;;;;;;25.23;49.54;98017.34;4934365;29;20032;-73
2023/07/02 03:21:49;;;;;;;5.90;3.10;;;;;;;25.39;49.10;98021.25;4934459;29;20066;-72
2023/07/02 03:24:15;;;;;;;5.05;3.05;;;;;;;25.36;48.91;98017.16;4934607;29;20039;-72
2023/07/02 03:26:41;;;;;;;5.80;3.00;;;;;;;25.34;49.22;98021.94;4935747;29;20036;-72
2023/07/02 03:29:07;;;;;;;4.90;3.30;;;;;;;25.37;48.87;98026.81;4950347;28;20042;-72
2023/07/02 03:31:33;;;;;;;4.57;2.88;;;;;;;25.64;48.36;98029.84;4934297;29;20042;-72
2023/07/02 03:34:01;;;;;;;7.15;5.40;;;;;;;25.60;48.53;98028.69;4934393;29;20031;-72
2023/07/02 03:36:27;;;;;;;15.05;10.82;;;;;;;25.87;47.84;98032.75;4934881;29;20035;-72
2023/07/02 03:38:52;;;;;;;18.88;15.20;;;;;;;26.48;46.32;98035.94;4918315;29;20034;-72
2023/07/02 03:41:17;;;;;;;19.90;13.48;;;;;;;27.03;45.29;98048.00;4935686;29;20479;-72
2023/07/02 03:43:43;;;;;;;15.20;10.27;;;;;;;27.54;43.93;98040.00;4918133;29;20164;-72
2023/07/02 03:46:08;;;;;;;11.35;8.93;;;;;;;27.97;43.05;98028.63;4949906;29;20044;-72
2023/07/02 03:48:34;;;;;;;8.30;6.85;;;;;;;27.64;43.93;98029.44;4933629;29;20418;-73
2023/07/02 03:51:01;;;;;;;9.05;6.00;;;;;;;27.39;44.14;98032.53;4935191;29;20036;-72
2023/07/02 03:53:26;;;;;;;10.33;7.03;;;;;;;27.27;44.56;98032.59;4933989;29;20475;-72
2023/07/02 03:55:52;;;;;;;19.27;14.57;;;;;;;27.17;44.99;98029.75;4934934;29;20027;-72
2023/07/02 03:58:17;;;;;;;15.13;11.63;;;;;;;27.46;44.46;98040.44;4933877;29;20071;-73
2023/07/02 04:00:44;;;;;;;18.33;14.50;;;;;;;27.72;44.13;98041.63;4933744;29;20051;-73
2023/07/02 04:03:09;;;;;;;18.55;15.20;;;;;;;28.52;42.86;98034.94;4933946;29;20110;-73
2023/07/02 04:05:34;;;;;;;11.65;10.05;;;;;;;28.41;42.63;98016.28;4933887;29;20498;-72
2023/07/02 04:08:00;;;;;;;13.15;10.52;;;;;;;28.09;43.37;98019.66;4933752;29;20020;-73
2023/07/02 04:10:27;;;;;;;13.20;8.65;;;;;;;27.89;43.33;98020.94;4934835;29;20043;-75
2023/07/02 04:12:52;;;;;;;9.73;7.95;;;;;;;27.77;43.96;98028.31;4935011;29;20114;-73
2023/07/02 04:15:18;;;;;;;8.50;6.70;;;;;;;28.01;43.29;98025.44;4933753;29;20039;-73
2023/07/02 04:17:43;;;;;;;8.75;6.78;;;;;;;27.84;43.05;98022.75;4934962;29;20032;-73
2023/07/02 04:20:09;;;;;;;8.23;5.65;;;;;;;27.84;43.31;98034.28;4949759;29;20047;-74
2023/07/02 04:22:35;;;;;;;13.40;10.70;;;;;;;27.82;43.20;98030.22;4933805;29;20403;-72
2023/07/02 04:25:00;;;;;;;9.63;8.63;;;;;;;27.69;44.08;98034.06;4933901;29;20044;-73
2023/07/02 04:27:26;;;;;;;12.95;9.55;;;;;;;27.60;44.03;98037.16;4935549;29;20034;-73
2023/07/02 04:29:53;;;;;;;12.27;9.98;;;;;;;27.51;43.97;98037.81;4937455;29;20119;-73
2023/07/02 04:32:18;;;;;;;14.13;9.27;;;;;;;27.48;43.69;98041.78;4937545;29;20491;-73
2023/07/02 04:34:44;;;;;;;11.80;9.05;;;;;;;27.42;43.70;98038.22;4937455;29;20032;-73
2023/07/02 04:37:09;;;;;;;11.45;8.73;;;;;;;27.37;43.44;98040.00;4936886;29;20044;-72
2023/07/02 04:39:35;;;;;;;9.43;8.07;;;;;;;27.30;43.89;98037.47;4937149;29;20051;-73
2023/07/02 04:42:00;;;;;;;11.20;8.48;;;;;;;27.23;44.17;98040.31;4952738;29;20106;-73
2023/07/02 04:44:29;;;;;;;13.00;9.98;;;;;;;27.22;44.26;98044.03;4921389;29;20063;-72
2023/07/02 04:47:06;;;;;;;19.27;17.20;;;;;;;27.25;45.06;98054.25;4905996;29;20039;-73
2023/07/02 04:49:31;;;;;;;23.42;19.08;;;;;;;27.24;45.35;98052.63;4922439;29;20135;-73
2023/07/02 04:51:57;;;;;;;20.70;17.60;;;;;;;27.31;44.60;98049.00;4937407;29;20074;-73
2023/07/02 04:54:22;;;;;;;20.02;16.05;;;;;;;27.57;44.07;98044.88;4921331;29;20039;-73
2023/07/02 04:56:48;;;;;;;11.90;10.20;;;;;;;28.62;42.37;98049.56;4921055;29;20411;-73
2023/07/02 04:59:14;;;;;;;15.57;10.02;;;;;;;30.59;38.92;98045.44;4921036;29;20063;-73
2023/07/02 05:01:40;;;;;;;11.38;9.30;;;;;;;32.08;36.30;98054.44;4920982;29;20040;-73
2023/07/02 05:04:05;;;;;;;10.15;8.70;;;;;;;33.34;33.76;98051.69;4920895;29;20038;-74
2023/07/02 05:06:31;;;;;;;15.80;11.95;;;;;;;34.12;32.48;98049.06;4920793;29;20047;-73
2023/07/02 05:08:56;;;;;;;7.90;6.75;;;;;;;35.07;30.32;98054.66;4936432;29;20083;-72
2023/07/02 05:11:22;;;;;;;13.75;8.48;;;;;;;33.77;32.53;98051.88;4937038;29;20036;-72
2023/07/02 05:13:47;;;;;;;7.95;6.85;;;;;;;32.96;33.17;98048.69;4920871;29;20403;-73
2023/07/02 05:16:13;;;;;;;7.03;6.10;;;;;;;32.40;34.84;98052.44;4920684;29;20399;-73
2023/07/02 05:18:38;;;;;;;8.63;7.50;;;;;;;31.98;35.95;98050.97;4920653;29;20035;-73
2023/07/02 05:21:04;;;;;;;12.65;9.00;;;;;;;31.62;36.84;98057.19;4904983;29;20063;-73
2023/07/02 05:23:29;;;;;;;12.80;8.43;;;;;;;31.33;37.17;98059.63;4936467;29;20031;-75
2023/07/02 05:25:55;;;;;;;7.80;6.55;;;;;;;31.06;37.75;98055.28;4936304;29;20043;-73
2023/07/02 05:28:20;;;;;;;7.15;5.05;;;;;;;30.87;37.90;98051.44;4920841;29;20035;-73
2023/07/02 05:30:46;;;;;;;7.32;4.47;;;;;;;30.70;37.72;98052.47;4936325;29;20038;-73
2023/07/02 05:33:12;;;;;;;6.03;4.70;;;;;;;30.55;37.88;98050.53;4920459;29;20043;-72
2023/07/02 05:35:37;;;;;;;5.70;4.10;;;;;;;30.47;38.22;98051.03;4920661;29;20388;-72
2023/07/02 05:38:03;;;;;;;9.25;4.97;;;;;;;30.27;38.98;98038.31;4936301;29;20035;-73
2023/07/02 05:40:28;;;;;;;8.55;4.18;;;;;;;30.15;39.26;98056.53;4916015;29;20052;-73
2023/07/02 05:42:54;;;;;;;7.25;4.57;;;;;;;29.89;40.24;98067.16;4919213;29;20067;-73
2023/07/02 05:45:19;;;;;;;9.02;4.45;;;;;;;29.68;40.60;98060.78;4884776;29;20044;-74
2023/07/02 05:47:45;;;;;;;6.30;3.80;;;;;;;29.45;41.21;98068.16;4899333;29;20321;-73
2023/07/02 05:50:10;;;;;;;8.10;3.90;;;;;;;29.26;41.87;98065.03;4900705;29;20043;-73
2023/07/02 05:52:36;;;;;;;3.88;3.45;;;;;;;29.08;42.23;98057.28;4916552;29;20043;-72
2023/07/02 05:55:01;;;;;;;10.98;3.97;;;;;;;28.83;42.42;98051.41;4916810;29;20385;-72
2023/07/02 05:57:27;;;;;;;7.32;4.07;;;;;;;28.69;42.03;98067.09;4900862;29;20043;-73
2023/07/02 05:59:52;;;;;;;10.25;3.88;;;;;;;28.56;42.18;98063.97;4917708;29;20066;-72
2023/07/02 06:02:18;;;;;;;12.23;3.90;;;;;;;28.48;42.17;98074.09;4898942;29;20040;-80
2023/07/02 06:04:43;;;;;;;13.00;3.88;;;;;;;28.45;42.57;98079.13;4901693;29;20508;-80
2023/07/02 06:07:09;;;;;;;42.22;5.03;;;;;;;28.42;42.62;98079.66;4900440;29;20506;-76
2023/07/02 06:09:34;;;;;;;46.63;4.70;;;;;;;28.40;42.57;98082.59;4900521;29;20094;-81
2023/07/02 06:12:00;;;;;;;16.67;4.28;;;;;;;28.39;42.28;98080.94;4916738;29;20555;-80
2023/07/02 06:14:26;;;;;;;13.27;4.70;;;;;;;28.38;42.34;98082.00;4899705;29;20098;-73
2023/07/02 06:16:52;;;;;;;51.60;11.65;;;;;;;28.20;42.30;98090.38;4916784;29;20273;-72
2023/07/02 06:19:18;;;;;;;33.58;16.85;;;;;;;28.01;43.74;98081.78;4899107;29;20127;-77
2023/07/02 06:21:43;;;;;;;18.10;10.88;;;;;;;27.74;43.21;98090.47;4900494;29;20376;-74
2023/07/02 06:24:09;;;;;;;14.75;11.00;;;;;;;27.62;43.25;98095.91;4916482;29;20048;-72
2023/07/02 06:26:34;;;;;;;10.95;8.55;;;;;;;27.50;42.96;98097.84;4916824;29;20028;-73
2023/07/02 06:29:00;;;;;;;12.32;8.85;;;;;;;27.33;43.15;98093.28;4915458;29;20031;-71
2023/07/02 06:31:26;;;;;;;28.55;23.52;;;;;;;27.45;43.73;98095.88;4916583;29;20487;-72
2023/07/02 06:33:51;;;;;;;12.18;10.18;;;;;;;27.53;42.11;98094.66;4898496;29;20080;-72
2023/07/02 06:36:17;;;;;;;15.27;6.60;;;;;;;27.56;41.63;98092.34;4899514;29;20036;-71
2023/07/02 06:38:43;;;;;;;36.47;19.90;;;;;;;27.58;42.83;98090.22;4916598;29;20411;-71
2023/07/02 06:41:08;;;;;;;15.85;8.90;;;;;;;27.66;43.39;98090.84;4899455;29;20491;-74
2023/07/02 06:43:34;;;;;;;14.70;6.90;;;;;;;27.50;43.01;98087.94;4899441;29;20052;-72
2023/07/02 06:46:00;;;;;;;12.10;7.15;;;;;;;27.40;43.23;98087.75;4914659;29;20035;-71
2023/07/02 06:48:25;;;;;;;12.95;7.40;;;;;;;27.31;43.34;98090.03;4914503;29;20036;-70
2023/07/02 06:50:50;;;;;;;18.33;6.40;;;;;;;27.34;44.24;98094.91;4899062;29;20036;-71
2023/07/02 06:53:16;;;;;;;14.73;6.45;;;;;;;27.24;43.67;98103.53;4916711;29;20036;-71
2023/07/02 06:55:41;;;;;;;18.90;7.38;;;;;;;27.18;43.90;98111.72;4916355;29;20107;-70
2023/07/02 06:58:07;;;;;;;11.85;7.68;;;;;;;27.22;43.68;98116.38;4898674;29;20044;-71
2023/07/02 07:00:36;;;;;;;13.60;8.60;;;;;;;27.13;43.58;98123.16;4914909;29;20484;-70
2023/07/02 07:03:04;;;;;;;15.80;7.13;;;;;;;27.01;43.85;98123.22;4899097;29;20036;-71
2023/07/02 07:05:33;;;;;;;17.92;7.10;;;;;;;27.02;43.91;98135.53;4899311;29;20024;-70
2023/07/02 07:08:00;;;;;;;13.88;6.95;;;;;;;26.97;44.34;98145.34;4898775;29;20029;-73
2023/07/02 07:10:25;;;;;;;15.95;6.10;;;;;;;26.73;45.26;98148.09;4899217;29;20054;-73
2023/07/02 07:12:51;;;;;;;14.93;8.73;;;;;;;26.63;45.98;98153.19;4915784;29;20479;-72
2023/07/02 07:15:16;;;;;;;26.70;16.77;;;;;;;26.35;47.06;98138.69;4914746;29;20036;-72
2023/07/02 07:17:42;;;;;;;11.98;8.63;;;;;;;26.38;47.88;98132.88;4898625;29;20039;-72
2023/07/02 07:20:08;;;;;;;12.95;6.75;;;;;;;26.37;49.05;98109.84;4898871;29;20048;-72
2023/07/02 07:22:33;;;;;;;8.82;6.50;;;;;;;26.34;50.40;98102.28;4898964;29;20119;-71
2023/07/02 07:24:59;;;;;;;11.75;8.77;;;;;;;26.30;50.81;98101.13;4899105;29;20028;-71
2023/07/02 07:27:24;;;;;;;17.88;13.30;;;;;;;26.28;51.89;98098.69;4914259;29;20076;-71
2023/07/02 07:29:50;;;;;;;13.65;7.30;;;;;;;26.31;51.91;98087.53;4898831;29;20024;-73
2023/07/02 07:32:16;;;;;;;8.13;5.57;;;;;;;26.30;51.87;98074.38;4898101;29;20111;-71
2023/07/02 07:34:42;;;;;;;15.50;10.68;;;;;;;26.23;52.94;98074.50;4914497;29;20035;-72
2023/07/02 07:37:07;;;;;;;14.38;8.50;;;;;;;26.18;52.55;98079.75;4898861;29;20028;-71
2023/07/02 07:39:33;;;;;;;23.05;19.35;;;;;;;26.25;52.90;98084.97;4915345;29;20131;-71
2023/07/02 07:41:58;;;;;;;14.13;9.43;;;;;;;26.40;51.82;98073.78;4882879;29;20045;-72
2023/07/02 07:44:28;;;;;;;9.77;7.00;;;;;;;26.58;51.15;98076.28;4914170;29;20407;-72
2023/07/02 07:46:55;;;;;;;10.32;5.10;;;;;;;26.99;48.47;98066.38;4899293;29;20028;-72
2023/07/02 07:49:21;;;;;;;5.25;4.20;;;;;;;28.23;45.32;98066.53;4915584;29;20028;-72
2023/07/02 07:51:46;;;;;;;10.07;6.13;;;;;;;29.02;45.40;98054.56;4898978;29;20475;-71
2023/07/02 07:54:12;;;;;;;8.50;6.32;;;;;;;29.92;45.01;98055.84;4914351;29;20043;-75
2023/07/02 07:56:37;;;;;;;14.73;6.80;;;;;;;30.04;43.86;98042.22;4898074;29;20147;-72
2023/07/02 07:59:03;;;;;;;12.55;6.10;;;;;;;30.38;42.42;98045.38;4898327;29;20024;-72
2023/07/02 08:01:28;;;;;;;7.50;4.00;;;;;;;30.62;40.57;98039.53;4897277;29;20043;-73
2023/07/02 08:03:54;;;;;;;5.88;3.65;;;;;;;30.43;40.01;98044.59;4913988;29;20039;-72
2023/07/02 08:06:19;;;;;;;7.80;5.22;;;;;;;30.66;39.70;98048.69;4898361;29;20036;-72
2023/07/02 08:08:45;;;;;;;6.65;4.90;;;;;;;30.81;37.91;98037.94;4898500;29;20055;-72
2023/07/02 08:11:11;;;;;;;7.32;3.67;;;;;;;31.47;35.67;98049.91;4913825;29;20090;-72
2023/07/02 08:13:37;;;;;;;6.05;3.38;;;;;;;31.26;35.84;98041.00;4915074;29;20119;-71
2023/07/02 08:16:03;;;;;;;6.63;3.78;;;;;;;31.16;36.64;98051.78;4898064;29;20043;-71
2023/07/02 08:18:28;;;;;;;5.80;3.70;;;;;;;31.15;36.07;98042.91;4915400;29;20035;-71
2023/07/02 08:20:54;;;;;;;6.22;3.30;;;;;;;31.59;35.06;98044.25;4913747;29;20029;-73
2023/07/02 08:23:19;;;;;;;6.05;3.70;;;;;;;31.81;35.25;98052.06;4913620;29;20419;-77
2023/07/02 08:25:44;;;;;;;5.38;3.78;;;;;;;31.79;36.09;98053.44;4913671;29;20051;-75
2023/07/02 08:28:10;;;;;;;5.45;3.40;;;;;;;32.47;33.75;98050.28;4897594;29;20029;-76
2023/07/02 08:30:35;;;;;;;9.77;3.22;;;;;;;32.91;32.10;98056.81;4898154;29;20063;-77
2023/07/02 08:33:01;;;;;;;6.53;3.10;;;;;;;33.20;32.13;98059.63;4897542;29;20036;-77
2023/07/02 08:35:27;;;;;;;8.10;3.20;;;;;;;33.41;30.98;98057.56;4913577;29;20051;-76
2023/07/02 08:37:52;;;;;;;6.60;3.20;;;;;;;33.61;30.70;98056.59;4913460;29;20123;-77
2023/07/02 08:40:18;;;;;;;6.10;3.67;;;;;;;33.74;31.59;98057.84;4915332;29;20036;-75
2023/07/02 08:42:45;;;;;;;4.25;2.80;;;;;;;33.70;32.38;98057.63;4914425;29;20052;-72
2023/07/02 08:45:11;;;;;;;4.07;3.47;;;;;;;33.52;32.05;98052.88;4898245;29;20036;-72
2023/07/02 08:47:36;;;;;;;7.32;3.50;;;;;;;33.52;31.78;98055.59;4898249;29;20103;-70
2023/07/02 08:50:03;;;;;;;6.22;3.58;;;;;;;33.56;31.34;98064.75;4897235;29;20643;-81
2023/07/02 08:52:28;;;;;;;6.57;3.92;;;;;;;33.57;31.46;98062.84;4898290;29;20032;-73
2023/07/02 08:54:54;;;;;;;7.75;4.05;;;;;;;33.45;31.34;98060.53;4914598;29;20044;-73
2023/07/02 08:57:21;;;;;;;10.18;4.65;;;;;;;33.29;31.74;98067.94;4913350;29;20443;-74
2023/07/02 08:59:47;;;;;;;7.30;5.28;;;;;;;33.20;31.41;98056.13;4913382;29;20046;-75
2023/07/02 09:02:13;;;;;;;13.32;4.80;;;;;;;33.35;31.54;98067.63;4914402;29;20414;-75
2023/07/02 09:04:38;;;;;;;7.43;5.00;;;;;;;33.31;31.46;98068.47;4897855;29;20040;-73
2023/07/02 09:07:04;;;;;;;8.82;5.05;;;;;;;33.00;31.99;98055.97;4913585;29;20032;-73
2023/07/02 09:09:30;;;;;;;14.48;5.20;;;;;;;32.52;32.98;98052.94;4913274;29;20048;-74
2023/07/02 09:11:55;;;;;;;10.40;5.57;;;;;;;32.42;33.46;98053.00;4897504;29;20103;-76
2023/07/02 09:14:30;;;;;;;10.05;5.18;;;;;;;32.30;33.58;98056.00;4900683;29;20151;-74
2023/07/02 09:17:07;;;;;;;52.67;13.63;;;;;;;32.35;34.25;98053.28;4917342;29;20135;-76
2023/07/02 09:19:32;;;;;;;53.17;14.57;;;;;;;32.52;35.25;98062.94;4885190;29;20055;-74
2023/07/02 09:22:00;;;;;;;19.80;8.13;;;;;;;32.47;34.88;98067.28;4900917;29;20547;-75
2023/07/02 09:24:25;;;;;;;;;;;;;;;32.60;34.50;98056.97;4886383;29;20040;-77
2023/07/02 09:26:53;;;;;;;10.55;5.85;;;;;;;32.58;33.79;98059.13;4900646;29;19919;-72
2023/07/02 09:29:30;;;;;;;;;;;;;;;32.99;33.58;98058.94;4917055;29;20060;-73
2023/07/02 09:31:59;;;;;;;9.77;4.93;;;;;;;33.20;33.20;98061.53;4900933;29;19915;-73
2023/07/02 09:34:29;;;;;;;8.68;5.13;;;;;;;32.94;32.82;98046.25;4901256;29;20058;-74
2023/07/02 09:36:55;;;;;;;10.50;4.93;;;;;;;33.11;32.01;98053.16;4917346;29;20061;-75
2023/07/02 09:39:31;;;;;;;8.70;4.82;;;;;;;33.21;32.37;98047.72;4900369;29;20040;-74
2023/07/02 09:41:57;;;;;;;8.07;4.90;;;;;;;33.37;32.73;98053.81;4915961;29;20492;-74
2023/07/02 09:44:33;;;;;;;8.13;5.32;;;;;;;33.34;31.52;98046.28;4900920;29;20089;-75
2023/07/02 09:47:03;;;;;;;8.57;5.00;;;;;;;32.92;32.31;98047.63;4884925;29;20036;-75
2023/07/02 09:49:31;;;;;;;7.40;5.05;;;;;;;33.03;32.17;98048.38;4917310;29;20032;-74
2023/07/02 09:51:59;;;;;;;13.07;4.88;;;;;;;33.23;32.41;98053.66;4884428;29;20035;-74
2023/07/02 09:54:24;;;;;;;8.05;4.88;;;;;;;33.46;32.45;98043.19;4900292;29;20047;-76
2023/07/02 09:56:50;;;;;;;10.05;5.30;;;;;;;33.68;31.87;98043.53;4899948;29;20040;-76
2023/07/02 09:59:15;;;;;;;8.05;4.90;;;;;;;33.63;31.70;98040.06;4900347;29;20032;-75
2023/07/02 10:01:41;;;;;;;9.05;4.72;;;;;;;33.39;32.06;98024.59;4899907;29;20039;-75
2023/07/02 10:04:13;;;;;;;11.02;4.95;;;;;;;33.44;32.94;98032.66;4915718;29;20036;-73
2023/07/02 10:06:52;;;;;;;33.10;7.40;;;;;;;33.77;32.28;98030.22;4884223;29;20683;-73
2023/07/02 10:09:18;;;;;;;7.00;5.20;;;;;;;33.66;32.23;98021.34;4915375;29;20039;-73
2023/07/02 10:11:44;;;;;;;10.05;5.38;;;;;;;33.45;32.69;98022.66;4899122;29;20024;-74
2023/07/02 10:14:09;;;;;;;27.40;6.20;;;;;;;33.64;33.16;98018.13;4898949;29;20325;-73
2023/07/02 10:16:48;;;;;;;15.27;5.40;;;;;;;33.60;32.68;98025.19;4914925;29;20028;-72
2023/07/02 10:19:14;;;;;;;6.68;5.22;;;;;;;33.26;32.97;98017.13;4916098;29;20039;-77
2023/07/02 10:21:39;;;;;;;10.73;4.65;;;;;;;33.50;32.32;98019.91;4916769;29;20055;-75
2023/07/02 10:24:12;;;;;;;9.23;5.00;;;;;;;33.44;32.13;98021.03;4905667;29;20043;-76
2023/07/02 10:26:38;;;;;;;11.52;4.72;;;;;;;33.29;33.15;98021.94;4910228;29;20035;-78
2023/07/02 10:29:03;;;;;;;12.85;4.60;;;;;;;33.14;33.09;98022.88;4902754;29;20519;-78
2023/07/02 10:31:29;;;;;;;5.65;4.60;;;;;;;33.13;33.51;98016.66;4902940;29;20111;-77
2023/07/02 10:33:55;;;;;;;6.20;4.53;;;;;;;33.10;33.19;98005.59;4905375;29;20034;-75
2023/07/02 10:36:24;;;;;;;6.47;4.75;;;;;;;33.00;33.49;97995.66;4935684;29;20023;-75
2023/07/02 10:38:51;;;;;;;12.30;5.10;;;;;;;32.80;33.75;98005.53;4902733;29;20135;-72
2023/07/02 10:41:26;;;;;;;10.73;4.47;;;;;;;32.72;33.92;98003.44;4918192;29;20131;-75
2023/07/02 10:43:52;;;;;;;4.70;4.20;;;;;;;32.60;34.88;98008.34;4917939;29;20062;-73
2023/07/02 10:46:24;;;;;;;9.05;4.68;;;;;;;32.37;34.97;98005.22;4918357;29;20040;-73
2023/07/02 10:48:56;;;;;;;9.85;4.80;;;;;;;32.43;35.34;98008.69;4935247;29;20028;-73
2023/07/02 10:51:22;;;;;;;5.93;4.35;;;;;;;32.59;34.83;98009.41;4903214;29;20078;-73
2023/07/02 10:54:00;;;;;;;9.48;4.80;;;;;;;32.42;35.32;98016.00;4902486;29;20515;-73
2023/07/02 10:56:29;;;;;;;10.40;4.60;;;;;;;32.14;35.40;98019.34;4902427;29;20032;-73
2023/07/02 10:58:54;;;;;;;8.10;4.43;;;;;;;32.26;35.50;98014.44;4918179;29;20038;-73
2023/07/02 11:01:38;;;;;;;7.53;4.80;;;;;;;32.09;35.33;98006.69;4901525;29;20032;-74
2023/07/02 11:04:04;;;;;;;7.82;4.72;;;;;;;32.01;35.70;98002.63;4917236;29;20065;-74
2023/07/02 11:06:32;;;;;;;8.27;4.75;;;;;;;32.00;35.46;98017.19;4918387;29;20028;-74
2023/07/02 11:08:58;;;;;;;;;;;;;;;31.96;36.00;98016.16;4902900;29;20023;-72
2023/07/02 11:11:24;;;;;;;9.45;4.43;;;;;;;31.91;35.96;98011.56;4917950;29;20049;-73
2023/07/02 11:13:54;;;;;;;7.68;4.30;;;;;;;31.65;35.99;98015.41;4917336;29;20063;-72
2023/07/02 11:16:27;;;;;;;6.35;4.40;;;;;;;31.65;35.45;98013.50;4918156;29;20031;-73
2023/07/02 11:18:53;;;;;;;7.43;4.55;;;;;;;31.35;35.84;98012.41;4917861;29;20082;-76
2023/07/02 11:21:19;;;;;;;9.35;4.57;;;;;;;31.40;35.31;98000.81;4933315;29;20035;-72
2023/07/02 11:23:44;;;;;;;7.18;4.25;;;;;;;31.28;35.03;97994.91;4917872;29;20054;-72
2023/07/02 11:26:10;;;;;;;9.15;4.78;;;;;;;31.29;33.50;97993.81;4917655;29;20423;-75